Aérodrome :
LOGIN :

S'inscrire | Disclaimer

   EN    FR    IT 

 










Légende :    VFR   VFR Marginal   IFR   IFR Intensif   IFR Très Intensif
Visi : 
Plafond : 
>= 8 km
>= 3000ft
5 à 8 km
1000 à 3000 ft
1500m à 5 km
500 à 1000 ft
800 à 1500m
200 à 500 ft
< 800m
< 200 ft
Symboles :   Orages  Brouillard  Fortes neiges  Fortes précipitations  Vent > 20 kt
SIGMETs :   Divers  Orages  Givrage  Turbulence  Onde Orograph.  Cendres Volcan.






- Altitude de l'aérodrome : 276 ft


LYVR - Vršac International

DERNIER METAR :
  • 290130Z AUTO 24002KT 7000 FEW004/// BKN017/// OVC024/// 01/00 Q1022

METARs EXPIRÉS :
  • 290100Z AUTO 28002KT 7000 SCT003/// OVC017/// 01/00 Q1022
  • 290030Z AUTO VRB01KT 7000 SCT003/// OVC017/// 01/00 Q1022
  • 290000Z AUTO VRB02KT 7000 FEW003/// OVC018/// 01/00 Q1022
  • 282330Z AUTO 27003KT 240V310 7000 OVC017/// 01/M00 Q1022
  • 282300Z AUTO 22002KT 9999 OVC017/// 01/M00 Q1022

TAF TAF LYVR
Valide du 29 à 00h jusqu'au 30 à 00h UTC


282300Z 2900/2924 03004KT 5000 BR BKN006 BKN020 TX03/2913Z TNM02/2906Z
PROB30
TEMPO 2900/2903 1500 -SN BKN003 BKN017
TEMPO 2905/2908 0600 FZFG VV002
BECMG 2909/2911 6000 NSW BKN010 BKN023



MET'MAP, la Météo Aéronautique d'un coup d'oeil ! - Copyright ORBIFLY Décembre 2007 - Disclaimer

ORBIFLY MET'MAP TEAM :

Programmation & Développement : Alexandra Zaïnal
Sur une idée originale de : Baudouin d'Aumeries
Assistance à la programmation : Marc-Olivier Méhu
Soutien technique & logistique : Manuel Goepfert

Contact : metmap@orbifly.com




SOURCES & CREDITS :

   NOAA